Terminal Aerodrome Forecast
Issued by NWS Sioux Falls, SD

Home | Current Version | Previous Version | Graphics & Text | Print | Product List | Glossary On
Versions: 1 2 3 4 5 6 7 8 9 10 11 12 13 14 15
017
FTUS43 KFSD 182330
TAFHON
TAF
KHON 182330Z 1900/1924 33009KT P6SM OVC050
     FM190700 VRB03KT P6SM SCT200
     FM190900 00000KT 3SM BR SCT200
     FM191400 VRB03KT P6SM FEW140
     FM191800 15004KT P6SM FEW250=

USA.gov is the U.S. government's official web portal to all federal, state and local government web resources and services.